sensor_id;sensor_type;location;lat;lon;timestamp;P1;durP1;ratioP1;P2;durP2;ratioP2
64033;SDS011;50280;49.864;8.638;2022-09-09T00:01:27;3.58;;;1.20;;
64033;SDS011;50280;49.864;8.638;2022-09-09T00:04:15;2.92;;;1.10;;
64033;SDS011;50280;49.864;8.638;2022-09-09T00:07:00;5.00;;;1.13;;
64033;SDS011;50280;49.864;8.638;2022-09-09T00:09:44;3.85;;;1.33;;
64033;SDS011;50280;49.864;8.638;2022-09-09T00:12:25;3.17;;;1.20;;
64033;SDS011;50280;49.864;8.638;2022-09-09T00:15:17;8.77;;;1.60;;
64033;SDS011;50280;49.864;8.638;2022-09-09T00:17:56;2.90;;;0.98;;
64033;SDS011;50280;49.864;8.638;2022-09-09T00:20:44;3.22;;;1.00;;
64033;SDS011;50280;49.864;8.638;2022-09-09T00:23:32;2.90;;;0.95;;
64033;SDS011;50280;49.864;8.638;2022-09-09T00:26:11;4.57;;;1.30;;
64033;SDS011;50280;49.864;8.638;2022-09-09T00:28:58;3.75;;;1.23;;
64033;SDS011;50280;49.864;8.638;2022-09-09T00:31:47;3.90;;;1.17;;
64033;SDS011;50280;49.864;8.638;2022-09-09T00:34:20;3.78;;;1.10;;
64033;SDS011;50280;49.864;8.638;2022-09-09T00:36:57;3.63;;;1.30;;
64033;SDS011;50280;49.864;8.638;2022-09-09T00:39:32;3.08;;;1.05;;
64033;SDS011;50280;49.864;8.638;2022-09-09T00:42:14;3.20;;;1.10;;
64033;SDS011;50280;49.864;8.638;2022-09-09T00:44:53;2.80;;;1.08;;
64033;SDS011;50280;49.864;8.638;2022-09-09T00:47:52;2.88;;;1.33;;
64033;SDS011;50280;49.864;8.638;2022-09-09T00:50:30;3.03;;;0.93;;
64033;SDS011;50280;49.864;8.638;2022-09-09T00:53:26;3.08;;;1.10;;
64033;SDS011;50280;49.864;8.638;2022-09-09T00:56:15;4.22;;;1.10;;
64033;SDS011;50280;49.864;8.638;2022-09-09T00:58:59;3.28;;;1.17;;
64033;SDS011;50280;49.864;8.638;2022-09-09T01:01:56;4.57;;;1.13;;
64033;SDS011;50280;49.864;8.638;2022-09-09T01:04:32;2.72;;;1.10;;
64033;SDS011;50280;49.864;8.638;2022-09-09T01:07:11;2.75;;;0.95;;
64033;SDS011;50280;49.864;8.638;2022-09-09T01:09:51;3.72;;;0.90;;
64033;SDS011;50280;49.864;8.638;2022-09-09T01:12:34;4.82;;;1.20;;
64033;SDS011;50280;49.864;8.638;2022-09-09T01:15:15;2.63;;;1.00;;
64033;SDS011;50280;49.864;8.638;2022-09-09T01:17:58;2.65;;;1.08;;
64033;SDS011;50280;49.864;8.638;2022-09-09T01:20:49;4.38;;;1.27;;
64033;SDS011;50280;49.864;8.638;2022-09-09T01:23:56;4.82;;;1.30;;
64033;SDS011;50280;49.864;8.638;2022-09-09T01:26:55;3.05;;;1.10;;
64033;SDS011;50280;49.864;8.638;2022-09-09T01:35:19;3.90;;;1.20;;
64033;SDS011;50280;49.864;8.638;2022-09-09T01:38:11;4.82;;;1.52;;
64033;SDS011;50280;49.864;8.638;2022-09-09T01:40:45;5.63;;;1.70;;
64033;SDS011;50280;49.864;8.638;2022-09-09T01:43:20;4.40;;;1.38;;
64033;SDS011;50280;49.864;8.638;2022-09-09T01:45:56;6.13;;;1.67;;
64033;SDS011;50280;49.864;8.638;2022-09-09T01:48:33;5.43;;;1.40;;
64033;SDS011;50280;49.864;8.638;2022-09-09T01:51:07;3.67;;;1.40;;
64033;SDS011;50280;49.864;8.638;2022-09-09T01:53:40;4.00;;;1.40;;
64033;SDS011;50280;49.864;8.638;2022-09-09T01:56:21;4.03;;;1.50;;
64033;SDS011;50280;49.864;8.638;2022-09-09T01:59:17;5.57;;;1.50;;
64033;SDS011;50280;49.864;8.638;2022-09-09T02:02:16;3.03;;;1.50;;
64033;SDS011;50280;49.864;8.638;2022-09-09T02:04:56;5.40;;;1.52;;
64033;SDS011;50280;49.864;8.638;2022-09-09T02:07:48;4.55;;;1.80;;
64033;SDS011;50280;49.864;8.638;2022-09-09T02:10:29;6.85;;;1.60;;
64033;SDS011;50280;49.864;8.638;2022-09-09T02:13:18;4.93;;;1.33;;
64033;SDS011;50280;49.864;8.638;2022-09-09T02:15:56;4.28;;;1.40;;
64033;SDS011;50280;49.864;8.638;2022-09-09T02:18:40;2.80;;;1.17;;
64033;SDS011;50280;49.864;8.638;2022-09-09T02:21:25;3.30;;;1.27;;
64033;SDS011;50280;49.864;8.638;2022-09-09T02:24:03;5.47;;;1.40;;
64033;SDS011;50280;49.864;8.638;2022-09-09T02:26:41;4.95;;;1.40;;
64033;SDS011;50280;49.864;8.638;2022-09-09T02:29:20;3.95;;;1.33;;
64033;SDS011;50280;49.864;8.638;2022-09-09T02:32:03;6.18;;;1.40;;
64033;SDS011;50280;49.864;8.638;2022-09-09T02:34:43;6.13;;;1.70;;
64033;SDS011;50280;49.864;8.638;2022-09-09T02:37:23;5.78;;;1.50;;
64033;SDS011;50280;49.864;8.638;2022-09-09T02:40:14;2.35;;;1.25;;
64033;SDS011;50280;49.864;8.638;2022-09-09T02:42:47;5.18;;;1.60;;
64033;SDS011;50280;49.864;8.638;2022-09-09T02:45:23;4.93;;;1.50;;
64033;SDS011;50280;49.864;8.638;2022-09-09T02:48:06;4.45;;;1.38;;
64033;SDS011;50280;49.864;8.638;2022-09-09T02:50:53;4.82;;;1.50;;
64033;SDS011;50280;49.864;8.638;2022-09-09T02:53:39;3.10;;;1.45;;
64033;SDS011;50280;49.864;8.638;2022-09-09T02:56:29;4.60;;;1.45;;
64033;SDS011;50280;49.864;8.638;2022-09-09T02:59:11;7.05;;;1.58;;
64033;SDS011;50280;49.864;8.638;2022-09-09T03:01:45;3.17;;;1.30;;
64033;SDS011;50280;49.864;8.638;2022-09-09T03:04:19;3.78;;;1.50;;
64033;SDS011;50280;49.864;8.638;2022-09-09T03:06:51;4.53;;;1.50;;
64033;SDS011;50280;49.864;8.638;2022-09-09T03:09:24;5.28;;;1.42;;
64033;SDS011;50280;49.864;8.638;2022-09-09T03:11:56;6.30;;;1.67;;
64033;SDS011;50280;49.864;8.638;2022-09-09T03:14:29;5.32;;;1.52;;
64033;SDS011;50280;49.864;8.638;2022-09-09T03:17:01;6.05;;;1.60;;
64033;SDS011;50280;49.864;8.638;2022-09-09T03:19:35;5.05;;;1.60;;
64033;SDS011;50280;49.864;8.638;2022-09-09T03:22:08;3.80;;;1.30;;
64033;SDS011;50280;49.864;8.638;2022-09-09T03:24:42;4.82;;;1.52;;
64033;SDS011;50280;49.864;8.638;2022-09-09T03:27:14;2.90;;;1.50;;
64033;SDS011;50280;49.864;8.638;2022-09-09T03:29:48;2.95;;;1.40;;
64033;SDS011;50280;49.864;8.638;2022-09-09T03:32:21;3.38;;;1.50;;
64033;SDS011;50280;49.864;8.638;2022-09-09T03:34:55;5.97;;;1.85;;
64033;SDS011;50280;49.864;8.638;2022-09-09T03:37:27;7.03;;;1.92;;
64033;SDS011;50280;49.864;8.638;2022-09-09T03:40:00;3.90;;;1.50;;
64033;SDS011;50280;49.864;8.638;2022-09-09T03:42:33;3.63;;;1.35;;
64033;SDS011;50280;49.864;8.638;2022-09-09T03:45:07;4.07;;;1.45;;
64033;SDS011;50280;49.864;8.638;2022-09-09T03:47:43;3.95;;;1.50;;
64033;SDS011;50280;49.864;8.638;2022-09-09T03:50:17;4.90;;;1.45;;
64033;SDS011;50280;49.864;8.638;2022-09-09T03:52:49;5.25;;;1.60;;
64033;SDS011;50280;49.864;8.638;2022-09-09T03:55:22;5.47;;;1.63;;
64033;SDS011;50280;49.864;8.638;2022-09-09T03:57:54;4.32;;;1.40;;
64033;SDS011;50280;49.864;8.638;2022-09-09T04:00:26;7.38;;;1.60;;
64033;SDS011;50280;49.864;8.638;2022-09-09T04:02:59;5.70;;;1.80;;
64033;SDS011;50280;49.864;8.638;2022-09-09T04:05:32;5.28;;;1.40;;
64033;SDS011;50280;49.864;8.638;2022-09-09T04:08:05;6.90;;;1.60;;
64033;SDS011;50280;49.864;8.638;2022-09-09T04:10:38;2.75;;;1.25;;
64033;SDS011;50280;49.864;8.638;2022-09-09T04:13:10;3.75;;;1.42;;
64033;SDS011;50280;49.864;8.638;2022-09-09T04:15:42;4.45;;;1.65;;
64033;SDS011;50280;49.864;8.638;2022-09-09T04:18:24;2.97;;;1.40;;
64033;SDS011;50280;49.864;8.638;2022-09-09T04:20:59;4.10;;;1.30;;
64033;SDS011;50280;49.864;8.638;2022-09-09T04:23:32;3.78;;;1.58;;
64033;SDS011;50280;49.864;8.638;2022-09-09T04:26:05;5.13;;;1.75;;
64033;SDS011;50280;49.864;8.638;2022-09-09T04:28:38;6.47;;;1.50;;
64033;SDS011;50280;49.864;8.638;2022-09-09T04:31:12;5.97;;;1.75;;
64033;SDS011;50280;49.864;8.638;2022-09-09T04:33:49;5.15;;;1.50;;
64033;SDS011;50280;49.864;8.638;2022-09-09T04:36:23;4.55;;;1.50;;
64033;SDS011;50280;49.864;8.638;2022-09-09T04:38:56;6.32;;;1.67;;
64033;SDS011;50280;49.864;8.638;2022-09-09T04:41:28;4.85;;;1.30;;
64033;SDS011;50280;49.864;8.638;2022-09-09T04:44:01;5.53;;;1.48;;
64033;SDS011;50280;49.864;8.638;2022-09-09T04:46:33;4.13;;;1.40;;
64033;SDS011;50280;49.864;8.638;2022-09-09T04:49:06;6.50;;;1.40;;
64033;SDS011;50280;49.864;8.638;2022-09-09T04:51:40;5.57;;;1.70;;
64033;SDS011;50280;49.864;8.638;2022-09-09T04:54:12;3.65;;;1.20;;
64033;SDS011;50280;49.864;8.638;2022-09-09T04:56:44;4.25;;;1.50;;
64033;SDS011;50280;49.864;8.638;2022-09-09T04:59:17;4.78;;;1.35;;
64033;SDS011;50280;49.864;8.638;2022-09-09T05:01:49;3.42;;;1.20;;
64033;SDS011;50280;49.864;8.638;2022-09-09T05:04:21;3.58;;;1.25;;
64033;SDS011;50280;49.864;8.638;2022-09-09T05:06:55;4.03;;;1.55;;
64033;SDS011;50280;49.864;8.638;2022-09-09T05:09:28;7.78;;;1.60;;
64033;SDS011;50280;49.864;8.638;2022-09-09T05:12:00;3.80;;;1.25;;
64033;SDS011;50280;49.864;8.638;2022-09-09T05:14:33;5.70;;;1.63;;
64033;SDS011;50280;49.864;8.638;2022-09-09T05:17:05;4.35;;;0.93;;
64033;SDS011;50280;49.864;8.638;2022-09-09T05:19:38;3.95;;;1.20;;
64033;SDS011;50280;49.864;8.638;2022-09-09T05:22:11;4.88;;;1.20;;
64033;SDS011;50280;49.864;8.638;2022-09-09T05:24:44;4.53;;;1.30;;
64033;SDS011;50280;49.864;8.638;2022-09-09T05:27:16;4.22;;;1.25;;
64033;SDS011;50280;49.864;8.638;2022-09-09T05:29:49;3.47;;;1.10;;
64033;SDS011;50280;49.864;8.638;2022-09-09T05:32:21;3.83;;;1.42;;
64033;SDS011;50280;49.864;8.638;2022-09-09T05:34:53;4.25;;;1.10;;
64033;SDS011;50280;49.864;8.638;2022-09-09T05:37:27;4.65;;;1.35;;
64033;SDS011;50280;49.864;8.638;2022-09-09T05:40:00;2.65;;;1.27;;
64033;SDS011;50280;49.864;8.638;2022-09-09T05:42:33;4.78;;;1.30;;
64033;SDS011;50280;49.864;8.638;2022-09-09T05:45:05;3.40;;;1.00;;
64033;SDS011;50280;49.864;8.638;2022-09-09T05:47:40;3.90;;;1.13;;
64033;SDS011;50280;49.864;8.638;2022-09-09T05:50:12;5.28;;;1.27;;
64033;SDS011;50280;49.864;8.638;2022-09-09T05:52:46;5.43;;;1.20;;
64033;SDS011;50280;49.864;8.638;2022-09-09T05:55:18;4.53;;;1.10;;
64033;SDS011;50280;49.864;8.638;2022-09-09T05:57:50;3.25;;;1.00;;
64033;SDS011;50280;49.864;8.638;2022-09-09T06:00:23;3.83;;;1.10;;
64033;SDS011;50280;49.864;8.638;2022-09-09T06:02:55;8.10;;;1.50;;
64033;SDS011;50280;49.864;8.638;2022-09-09T06:05:27;3.63;;;1.10;;
64033;SDS011;50280;49.864;8.638;2022-09-09T06:08:01;6.10;;;1.02;;
64033;SDS011;50280;49.864;8.638;2022-09-09T06:10:34;4.05;;;1.38;;
64033;SDS011;50280;49.864;8.638;2022-09-09T06:13:06;3.22;;;1.10;;
64033;SDS011;50280;49.864;8.638;2022-09-09T06:15:38;3.00;;;1.10;;
64033;SDS011;50280;49.864;8.638;2022-09-09T06:18:11;3.40;;;1.10;;
64033;SDS011;50280;49.864;8.638;2022-09-09T06:20:52;3.38;;;1.10;;
64033;SDS011;50280;49.864;8.638;2022-09-09T06:23:28;3.65;;;1.02;;
64033;SDS011;50280;49.864;8.638;2022-09-09T06:26:04;4.25;;;1.15;;
64033;SDS011;50280;49.864;8.638;2022-09-09T06:28:41;3.63;;;0.95;;
64033;SDS011;50280;49.864;8.638;2022-09-09T06:31:15;5.07;;;1.80;;
64033;SDS011;50280;49.864;8.638;2022-09-09T06:33:50;4.03;;;1.20;;
64033;SDS011;50280;49.864;8.638;2022-09-09T06:36:32;3.55;;;1.10;;
64033;SDS011;50280;49.864;8.638;2022-09-09T06:39:09;4.85;;;1.10;;
64033;SDS011;50280;49.864;8.638;2022-09-09T06:41:42;8.27;;;1.63;;
64033;SDS011;50280;49.864;8.638;2022-09-09T06:44:14;5.28;;;1.30;;
64033;SDS011;50280;49.864;8.638;2022-09-09T06:46:47;3.78;;;1.10;;
64033;SDS011;50280;49.864;8.638;2022-09-09T06:49:19;4.65;;;1.08;;
64033;SDS011;50280;49.864;8.638;2022-09-09T06:51:51;3.05;;;1.00;;
64033;SDS011;50280;49.864;8.638;2022-09-09T06:54:25;4.35;;;1.20;;
64033;SDS011;50280;49.864;8.638;2022-09-09T06:56:57;2.45;;;1.15;;
64033;SDS011;50280;49.864;8.638;2022-09-09T06:59:30;4.13;;;1.20;;
64033;SDS011;50280;49.864;8.638;2022-09-09T07:02:02;2.38;;;1.10;;
64033;SDS011;50280;49.864;8.638;2022-09-09T07:04:35;4.03;;;1.30;;
64033;SDS011;50280;49.864;8.638;2022-09-09T07:07:07;3.40;;;1.35;;
64033;SDS011;50280;49.864;8.638;2022-09-09T07:09:41;3.47;;;1.10;;
64033;SDS011;50280;49.864;8.638;2022-09-09T07:12:13;5.03;;;1.50;;
64033;SDS011;50280;49.864;8.638;2022-09-09T07:14:45;3.70;;;1.30;;
64033;SDS011;50280;49.864;8.638;2022-09-09T07:17:18;5.85;;;1.30;;
64033;SDS011;50280;49.864;8.638;2022-09-09T07:19:50;5.60;;;1.40;;
64033;SDS011;50280;49.864;8.638;2022-09-09T07:22:22;3.70;;;1.55;;
64033;SDS011;50280;49.864;8.638;2022-09-09T07:24:56;5.45;;;1.40;;
64033;SDS011;50280;49.864;8.638;2022-09-09T07:27:28;3.92;;;1.27;;
64033;SDS011;50280;49.864;8.638;2022-09-09T07:30:01;6.55;;;1.67;;
64033;SDS011;50280;49.864;8.638;2022-09-09T07:32:34;5.07;;;1.40;;
64033;SDS011;50280;49.864;8.638;2022-09-09T07:35:06;3.72;;;1.20;;
64033;SDS011;50280;49.864;8.638;2022-09-09T07:37:39;6.95;;;1.70;;
64033;SDS011;50280;49.864;8.638;2022-09-09T07:40:13;6.10;;;1.60;;
64033;SDS011;50280;49.864;8.638;2022-09-09T07:42:46;7.47;;;1.30;;
64033;SDS011;50280;49.864;8.638;2022-09-09T07:45:18;5.63;;;1.20;;
64033;SDS011;50280;49.864;8.638;2022-09-09T07:47:51;6.25;;;1.40;;
64033;SDS011;50280;49.864;8.638;2022-09-09T07:50:24;4.32;;;1.20;;
64033;SDS011;50280;49.864;8.638;2022-09-09T07:52:57;9.73;;;2.35;;
64033;SDS011;50280;49.864;8.638;2022-09-09T07:55:31;5.07;;;1.60;;
64033;SDS011;50280;49.864;8.638;2022-09-09T07:58:04;3.95;;;1.30;;
64033;SDS011;50280;49.864;8.638;2022-09-09T08:00:36;8.70;;;2.00;;
64033;SDS011;50280;49.864;8.638;2022-09-09T08:03:08;6.68;;;1.25;;
64033;SDS011;50280;49.864;8.638;2022-09-09T08:05:41;5.70;;;1.52;;
64033;SDS011;50280;49.864;8.638;2022-09-09T08:08:13;8.35;;;1.33;;
64033;SDS011;50280;49.864;8.638;2022-09-09T08:10:47;6.82;;;1.70;;
64033;SDS011;50280;49.864;8.638;2022-09-09T08:13:19;8.30;;;1.50;;
64033;SDS011;50280;49.864;8.638;2022-09-09T08:15:52;4.05;;;1.30;;
64033;SDS011;50280;49.864;8.638;2022-09-09T08:18:24;6.57;;;1.55;;
64033;SDS011;50280;49.864;8.638;2022-09-09T08:21:04;5.63;;;1.60;;
64033;SDS011;50280;49.864;8.638;2022-09-09T08:23:39;5.50;;;1.50;;
64033;SDS011;50280;49.864;8.638;2022-09-09T08:26:15;6.40;;;1.67;;
64033;SDS011;50280;49.864;8.638;2022-09-09T08:28:51;4.93;;;1.40;;
64033;SDS011;50280;49.864;8.638;2022-09-09T08:31:27;5.88;;;1.40;;
64033;SDS011;50280;49.864;8.638;2022-09-09T08:34:03;5.63;;;1.50;;
64033;SDS011;50280;49.864;8.638;2022-09-09T08:36:38;6.07;;;1.80;;
64033;SDS011;50280;49.864;8.638;2022-09-09T08:39:14;7.75;;;1.70;;
64033;SDS011;50280;49.864;8.638;2022-09-09T08:42:08;5.07;;;1.67;;
64033;SDS011;50280;49.864;8.638;2022-09-09T08:45:11;5.05;;;1.42;;
64033;SDS011;50280;49.864;8.638;2022-09-09T08:48:08;4.45;;;1.45;;
64033;SDS011;50280;49.864;8.638;2022-09-09T08:51:09;9.73;;;1.80;;
64033;SDS011;50280;49.864;8.638;2022-09-09T08:53:44;6.18;;;1.77;;
64033;SDS011;50280;49.864;8.638;2022-09-09T08:56:23;5.07;;;1.65;;
64033;SDS011;50280;49.864;8.638;2022-09-09T08:59:01;6.95;;;1.63;;
64033;SDS011;50280;49.864;8.638;2022-09-09T09:01:38;5.15;;;1.40;;
64033;SDS011;50280;49.864;8.638;2022-09-09T09:04:34;6.13;;;1.60;;
64033;SDS011;50280;49.864;8.638;2022-09-09T09:07:33;4.32;;;1.17;;
64033;SDS011;50280;49.864;8.638;2022-09-09T09:10:34;10.90;;;2.10;;
64033;SDS011;50280;49.864;8.638;2022-09-09T09:13:19;9.13;;;2.07;;
64033;SDS011;50280;49.864;8.638;2022-09-09T09:16:04;9.00;;;2.17;;
64033;SDS011;50280;49.864;8.638;2022-09-09T09:18:52;8.53;;;2.70;;
64033;SDS011;50280;49.864;8.638;2022-09-09T09:21:27;6.53;;;1.88;;
64033;SDS011;50280;49.864;8.638;2022-09-09T09:24:15;6.65;;;1.92;;
64033;SDS011;50280;49.864;8.638;2022-09-09T09:26:52;9.48;;;2.55;;
64033;SDS011;50280;49.864;8.638;2022-09-09T09:29:26;7.40;;;2.05;;
64033;SDS011;50280;49.864;8.638;2022-09-09T09:32:00;6.30;;;1.98;;
64033;SDS011;50280;49.864;8.638;2022-09-09T09:34:35;7.88;;;1.60;;
64033;SDS011;50280;49.864;8.638;2022-09-09T09:37:12;7.53;;;1.55;;
64033;SDS011;50280;49.864;8.638;2022-09-09T09:40:07;8.05;;;1.65;;
64033;SDS011;50280;49.864;8.638;2022-09-09T09:42:47;6.05;;;1.30;;
64033;SDS011;50280;49.864;8.638;2022-09-09T09:45:28;6.43;;;1.58;;
64033;SDS011;50280;49.864;8.638;2022-09-09T09:48:09;6.38;;;2.10;;
64033;SDS011;50280;49.864;8.638;2022-09-09T09:50:48;6.38;;;1.20;;
64033;SDS011;50280;49.864;8.638;2022-09-09T09:53:26;7.03;;;1.50;;
64033;SDS011;50280;49.864;8.638;2022-09-09T09:56:03;6.22;;;1.42;;
64033;SDS011;50280;49.864;8.638;2022-09-09T09:58:48;4.82;;;1.50;;
64033;SDS011;50280;49.864;8.638;2022-09-09T10:01:24;6.57;;;1.27;;
64033;SDS011;50280;49.864;8.638;2022-09-09T10:04:02;7.10;;;1.15;;
64033;SDS011;50280;49.864;8.638;2022-09-09T10:06:48;7.30;;;1.42;;
64033;SDS011;50280;49.864;8.638;2022-09-09T10:09:23;3.97;;;1.05;;
64033;SDS011;50280;49.864;8.638;2022-09-09T10:12:00;3.55;;;1.00;;
64033;SDS011;50280;49.864;8.638;2022-09-09T10:14:57;4.88;;;1.27;;
64033;SDS011;50280;49.864;8.638;2022-09-09T10:17:54;4.78;;;1.13;;
64033;SDS011;50280;49.864;8.638;2022-09-09T10:20:49;4.13;;;1.13;;
64033;SDS011;50280;49.864;8.638;2022-09-09T10:23:56;4.30;;;1.00;;
64033;SDS011;50280;49.864;8.638;2022-09-09T10:27:02;5.25;;;1.13;;
64033;SDS011;50280;49.864;8.638;2022-09-09T10:29:55;6.28;;;1.30;;
64033;SDS011;50280;49.864;8.638;2022-09-09T10:32:52;4.32;;;1.15;;
64033;SDS011;50280;49.864;8.638;2022-09-09T10:35:43;4.80;;;1.30;;
64033;SDS011;50280;49.864;8.638;2022-09-09T10:38:33;5.18;;;1.23;;
64033;SDS011;50280;49.864;8.638;2022-09-09T10:41:16;12.10;;;1.83;;
64033;SDS011;50280;49.864;8.638;2022-09-09T10:47:17;5.22;;;1.80;;
64033;SDS011;50280;49.864;8.638;2022-09-09T10:50:36;8.85;;;2.00;;
64033;SDS011;50280;49.864;8.638;2022-09-09T10:53:31;8.70;;;2.10;;
64033;SDS011;50280;49.864;8.638;2022-09-09T10:56:18;4.30;;;1.48;;
64033;SDS011;50280;49.864;8.638;2022-09-09T10:58:55;7.05;;;1.92;;
64033;SDS011;50280;49.864;8.638;2022-09-09T11:01:37;7.40;;;2.40;;
64033;SDS011;50280;49.864;8.638;2022-09-09T11:04:22;8.75;;;2.40;;
64033;SDS011;50280;49.864;8.638;2022-09-09T11:07:10;7.07;;;2.00;;
64033;SDS011;50280;49.864;8.638;2022-09-09T11:09:59;13.10;;;4.63;;
64033;SDS011;50280;49.864;8.638;2022-09-09T11:12:48;9.88;;;2.17;;
64033;SDS011;50280;49.864;8.638;2022-09-09T11:15:35;7.28;;;2.55;;
64033;SDS011;50280;49.864;8.638;2022-09-09T11:18:20;9.80;;;2.00;;
64033;SDS011;50280;49.864;8.638;2022-09-09T11:20:57;4.93;;;1.75;;
64033;SDS011;50280;49.864;8.638;2022-09-09T11:23:42;8.43;;;2.40;;
64033;SDS011;50280;49.864;8.638;2022-09-09T11:26:29;8.40;;;2.25;;
64033;SDS011;50280;49.864;8.638;2022-09-09T11:29:16;7.55;;;2.50;;
64033;SDS011;50280;49.864;8.638;2022-09-09T11:32:31;6.30;;;2.00;;
64033;SDS011;50280;49.864;8.638;2022-09-09T11:35:32;7.07;;;2.15;;
64033;SDS011;50280;49.864;8.638;2022-09-09T11:38:26;4.88;;;1.70;;
64033;SDS011;50280;49.864;8.638;2022-09-09T11:41:07;5.10;;;1.65;;
64033;SDS011;50280;49.864;8.638;2022-09-09T11:43:41;6.15;;;1.70;;
64033;SDS011;50280;49.864;8.638;2022-09-09T11:46:19;10.40;;;2.13;;
64033;SDS011;50280;49.864;8.638;2022-09-09T11:49:06;5.75;;;2.25;;
64033;SDS011;50280;49.864;8.638;2022-09-09T11:52:10;8.65;;;1.85;;
64033;SDS011;50280;49.864;8.638;2022-09-09T11:54:46;4.65;;;1.60;;
64033;SDS011;50280;49.864;8.638;2022-09-09T11:57:26;4.90;;;1.60;;
64033;SDS011;50280;49.864;8.638;2022-09-09T12:03:08;5.93;;;1.83;;
64033;SDS011;50280;49.864;8.638;2022-09-09T12:06:14;3.55;;;1.40;;
64033;SDS011;50280;49.864;8.638;2022-09-09T12:08:57;6.47;;;1.60;;
64033;SDS011;50280;49.864;8.638;2022-09-09T12:11:50;5.10;;;1.35;;
64033;SDS011;50280;49.864;8.638;2022-09-09T12:14:35;4.47;;;1.35;;
64033;SDS011;50280;49.864;8.638;2022-09-09T12:17:17;5.43;;;1.40;;
64033;SDS011;50280;49.864;8.638;2022-09-09T12:20:00;7.38;;;1.65;;
64033;SDS011;50280;49.864;8.638;2022-09-09T12:22:47;4.68;;;1.20;;
64033;SDS011;50280;49.864;8.638;2022-09-09T12:25:54;4.68;;;0.95;;
64033;SDS011;50280;49.864;8.638;2022-09-09T12:29:10;5.40;;;1.20;;
64033;SDS011;50280;49.864;8.638;2022-09-09T12:32:00;6.65;;;1.20;;
64033;SDS011;50280;49.864;8.638;2022-09-09T12:34:43;8.07;;;1.52;;
64033;SDS011;50280;49.864;8.638;2022-09-09T12:37:25;4.90;;;1.40;;
64033;SDS011;50280;49.864;8.638;2022-09-09T12:40:18;3.85;;;1.23;;
64033;SDS011;50280;49.864;8.638;2022-09-09T12:42:55;4.35;;;0.90;;
64033;SDS011;50280;49.864;8.638;2022-09-09T12:45:29;3.47;;;1.63;;
64033;SDS011;50280;49.864;8.638;2022-09-09T12:48:05;4.68;;;0.90;;
64033;SDS011;50280;49.864;8.638;2022-09-09T12:50:43;3.78;;;0.85;;
64033;SDS011;50280;49.864;8.638;2022-09-09T12:53:21;5.82;;;0.93;;
64033;SDS011;50280;49.864;8.638;2022-09-09T12:56:00;2.25;;;1.02;;
64033;SDS011;50280;49.864;8.638;2022-09-09T12:58:38;3.28;;;0.70;;
64033;SDS011;50280;49.864;8.638;2022-09-09T13:01:20;3.28;;;0.88;;
64033;SDS011;50280;49.864;8.638;2022-09-09T13:03:56;3.17;;;0.77;;
64033;SDS011;50280;49.864;8.638;2022-09-09T13:06:30;3.33;;;1.00;;
64033;SDS011;50280;49.864;8.638;2022-09-09T13:09:04;2.53;;;0.73;;
64033;SDS011;50280;49.864;8.638;2022-09-09T13:11:37;3.80;;;0.98;;
64033;SDS011;50280;49.864;8.638;2022-09-09T13:14:16;3.47;;;0.75;;
64033;SDS011;50280;49.864;8.638;2022-09-09T13:17:01;4.45;;;0.70;;
64033;SDS011;50280;49.864;8.638;2022-09-09T13:19:38;3.08;;;0.70;;
64033;SDS011;50280;49.864;8.638;2022-09-09T13:22:20;2.83;;;0.60;;
64033;SDS011;50280;49.864;8.638;2022-09-09T13:25:03;2.80;;;0.60;;
64033;SDS011;50280;49.864;8.638;2022-09-09T13:27:54;2.70;;;0.60;;
64033;SDS011;50280;49.864;8.638;2022-09-09T13:30:32;2.58;;;0.80;;
64033;SDS011;50280;49.864;8.638;2022-09-09T13:36:06;1.90;;;0.43;;
64033;SDS011;50280;49.864;8.638;2022-09-09T13:38:52;1.33;;;0.50;;
64033;SDS011;50280;49.864;8.638;2022-09-09T13:41:29;2.15;;;0.70;;
64033;SDS011;50280;49.864;8.638;2022-09-09T13:44:16;1.88;;;0.40;;
64033;SDS011;50280;49.864;8.638;2022-09-09T13:46:59;1.88;;;0.70;;
64033;SDS011;50280;49.864;8.638;2022-09-09T13:49:37;2.50;;;1.10;;
64033;SDS011;50280;49.864;8.638;2022-09-09T13:52:10;3.60;;;0.57;;
64033;SDS011;50280;49.864;8.638;2022-09-09T13:54:47;2.47;;;0.70;;
64033;SDS011;50280;49.864;8.638;2022-09-09T13:57:21;4.97;;;0.60;;
64033;SDS011;50280;49.864;8.638;2022-09-09T13:59:56;3.45;;;0.80;;
64033;SDS011;50280;49.864;8.638;2022-09-09T14:02:28;1.95;;;0.60;;
64033;SDS011;50280;49.864;8.638;2022-09-09T14:05:02;3.42;;;0.65;;
64033;SDS011;50280;49.864;8.638;2022-09-09T14:07:36;3.90;;;0.88;;
64033;SDS011;50280;49.864;8.638;2022-09-09T14:10:11;4.13;;;1.60;;
64033;SDS011;50280;49.864;8.638;2022-09-09T14:12:44;3.35;;;0.82;;
64033;SDS011;50280;49.864;8.638;2022-09-09T14:15:16;4.00;;;0.70;;
64033;SDS011;50280;49.864;8.638;2022-09-09T14:17:49;2.80;;;0.73;;
64033;SDS011;50280;49.864;8.638;2022-09-09T14:20:22;3.90;;;0.90;;
64033;SDS011;50280;49.864;8.638;2022-09-09T14:22:55;4.43;;;0.80;;
64033;SDS011;50280;49.864;8.638;2022-09-09T14:25:27;2.83;;;0.90;;
64033;SDS011;50280;49.864;8.638;2022-09-09T14:28:00;2.47;;;0.98;;
64033;SDS011;50280;49.864;8.638;2022-09-09T14:30:33;3.42;;;0.80;;
64033;SDS011;50280;49.864;8.638;2022-09-09T14:33:05;1.73;;;0.77;;
64033;SDS011;50280;49.864;8.638;2022-09-09T14:35:42;2.88;;;1.00;;
64033;SDS011;50280;49.864;8.638;2022-09-09T14:38:15;3.55;;;0.93;;
64033;SDS011;50280;49.864;8.638;2022-09-09T14:40:47;3.60;;;0.95;;
64033;SDS011;50280;49.864;8.638;2022-09-09T14:43:20;2.78;;;1.05;;
64033;SDS011;50280;49.864;8.638;2022-09-09T14:45:52;3.72;;;0.98;;
64033;SDS011;50280;49.864;8.638;2022-09-09T14:48:24;4.45;;;0.98;;
64033;SDS011;50280;49.864;8.638;2022-09-09T14:50:58;3.25;;;1.00;;
64033;SDS011;50280;49.864;8.638;2022-09-09T14:53:39;2.58;;;0.82;;
64033;SDS011;50280;49.864;8.638;2022-09-09T14:56:13;3.35;;;0.70;;
64033;SDS011;50280;49.864;8.638;2022-09-09T14:58:49;2.10;;;0.80;;
64033;SDS011;50280;49.864;8.638;2022-09-09T15:01:24;2.45;;;0.93;;
64033;SDS011;50280;49.864;8.638;2022-09-09T15:03:58;2.92;;;0.88;;
64033;SDS011;50280;49.864;8.638;2022-09-09T15:06:35;3.38;;;0.80;;
64033;SDS011;50280;49.864;8.638;2022-09-09T15:09:08;4.45;;;0.90;;
64033;SDS011;50280;49.864;8.638;2022-09-09T15:11:40;2.90;;;0.77;;
64033;SDS011;50280;49.864;8.638;2022-09-09T15:14:13;2.67;;;0.70;;
64033;SDS011;50280;49.864;8.638;2022-09-09T15:16:45;2.88;;;0.77;;
64033;SDS011;50280;49.864;8.638;2022-09-09T15:19:17;3.05;;;1.08;;
64033;SDS011;50280;49.864;8.638;2022-09-09T15:21:51;2.33;;;0.80;;
64033;SDS011;50280;49.864;8.638;2022-09-09T15:24:24;3.35;;;0.80;;
64033;SDS011;50280;49.864;8.638;2022-09-09T15:26:56;4.70;;;0.80;;
64033;SDS011;50280;49.864;8.638;2022-09-09T15:29:28;3.95;;;1.00;;
64033;SDS011;50280;49.864;8.638;2022-09-09T15:32:01;3.85;;;0.80;;
64033;SDS011;50280;49.864;8.638;2022-09-09T15:34:34;5.05;;;0.95;;
64033;SDS011;50280;49.864;8.638;2022-09-09T15:37:07;5.43;;;0.90;;
64033;SDS011;50280;49.864;8.638;2022-09-09T15:39:42;3.42;;;1.00;;
64033;SDS011;50280;49.864;8.638;2022-09-09T15:42:14;3.67;;;0.90;;
64033;SDS011;50280;49.864;8.638;2022-09-09T15:44:46;1.92;;;0.60;;
64033;SDS011;50280;49.864;8.638;2022-09-09T15:47:19;4.22;;;0.90;;
64033;SDS011;50280;49.864;8.638;2022-09-09T15:49:51;8.13;;;1.10;;
64033;SDS011;50280;49.864;8.638;2022-09-09T15:52:25;4.18;;;1.02;;
64033;SDS011;50280;49.864;8.638;2022-09-09T15:54:57;3.33;;;0.75;;
64033;SDS011;50280;49.864;8.638;2022-09-09T15:57:29;4.68;;;1.00;;
64033;SDS011;50280;49.864;8.638;2022-09-09T16:00:02;3.70;;;0.90;;
64033;SDS011;50280;49.864;8.638;2022-09-09T16:02:36;3.42;;;0.90;;
64033;SDS011;50280;49.864;8.638;2022-09-09T16:05:08;2.95;;;0.90;;
64033;SDS011;50280;49.864;8.638;2022-09-09T16:07:42;2.63;;;0.80;;
64033;SDS011;50280;49.864;8.638;2022-09-09T16:10:15;2.70;;;0.77;;
64033;SDS011;50280;49.864;8.638;2022-09-09T16:12:47;3.10;;;0.90;;